Time;durP1;ratioP1;P1;durP2;ratioP2;P2;SDS_P1;SDS_P2;PMS_P1;PMS_P2;Temp;Humidity;BMP_temperature;BMP_pressure;BME280_temperature;BME280_humidity;BME280_pressure;Samples;Min_cycle;Max_cycle;Signal;HPM_P1;HPM_P2
2022/02/09 00:06:49;;;;;;;0.40;0.40;;;;;;;6.47;100.00;101566.19;4992775;28;20037;-83
2022/02/09 00:09:16;;;;;;;0.50;0.50;;;;;;;6.16;100.00;101543.88;5003999;28;20113;-84
2022/02/09 00:17:16;;;;;;;0.50;0.50;;;;;;;6.13;100.00;101573.50;4995092;28;20034;-81
2022/02/09 00:30:30;;;;;;;0.40;0.40;;;;;;;6.06;100.00;101575.84;4991431;28;20029;-83
2022/02/09 00:36:03;;;;;;;0.40;0.40;;;;;;;5.99;100.00;101571.13;4969831;28;20053;-84
2022/02/09 01:02:43;;;;;;;0.50;0.50;;;;;;;6.12;100.00;101580.66;4976571;28;20080;-82
2022/02/09 01:38:48;;;;;;;0.50;0.50;;;;;;;6.30;100.00;101585.47;4990228;28;20036;-85
2022/02/09 01:55:28;;;;;;;0.40;0.40;;;;;;;6.09;100.00;101585.44;4978137;28;20081;-82
2022/02/09 01:57:54;;;;;;;0.40;0.40;;;;;;;6.12;100.00;101593.19;4957670;28;20129;-83
2022/02/09 02:00:20;;;;;;;4.20;0.90;;;;;;;5.99;100.00;101579.13;4965244;28;20038;-83
2022/02/09 02:02:45;;;;;;;1.45;0.70;;;;;;;6.03;100.00;101592.09;4986516;28;20021;-82
2022/02/09 02:05:11;;;;;;;0.50;0.50;;;;;;;5.97;100.00;101597.94;4987620;28;20480;-83
2022/02/09 02:07:52;;;;;;;0.40;0.40;;;;;;;5.95;100.00;101605.22;4987371;28;20041;-86
2022/02/09 02:10:24;;;;;;;0.50;0.50;;;;;;;5.88;100.00;101596.00;4993386;28;20033;-84
2022/02/09 02:12:56;;;;;;;0.40;0.40;;;;;;;5.89;100.00;101600.34;4978543;28;20073;-84
2022/02/09 02:18:02;;;;;;;0.40;0.40;;;;;;;5.86;100.00;101598.78;4991567;28;20030;-82
2022/02/09 02:20:46;;;;;;;0.50;0.50;;;;;;;5.86;100.00;101603.28;4993783;28;20056;-82
2022/02/09 02:34:00;;;;;;;0.57;0.57;;;;;;;5.84;100.00;101611.41;4996673;28;20037;-83
2022/02/09 03:14:52;;;;;;;0.50;0.50;;;;;;;5.79;100.00;101615.41;4978941;28;20052;-85
2022/02/09 03:17:30;;;;;;;0.50;0.50;;;;;;;5.76;100.00;101623.66;4964728;28;20070;-84
2022/02/09 03:20:04;;;;;;;0.50;0.50;;;;;;;5.72;100.00;101618.59;4973109;28;20041;-86
2022/02/09 03:51:55;;;;;;;0.47;0.47;;;;;;;5.13;100.00;101617.97;5005940;28;20487;-86
2022/02/09 03:54:53;;;;;;;0.50;0.50;;;;;;;5.05;100.00;101607.91;4989964;28;20083;-83
2022/02/09 03:57:24;;;;;;;0.50;0.50;;;;;;;4.99;100.00;101617.22;4980828;28;20049;-83
2022/02/09 04:00:00;;;;;;;0.40;0.40;;;;;;;4.93;100.00;101615.03;4988937;28;20045;-82
2022/02/09 04:02:30;;;;;;;0.40;0.40;;;;;;;5.04;100.00;101623.03;4955847;28;20072;-82
2022/02/09 04:04:58;;;;;;;0.50;0.50;;;;;;;5.14;100.00;101622.34;4984283;28;20045;-83
2022/02/09 04:07:23;;;;;;;0.40;0.40;;;;;;;5.25;100.00;101630.34;5008894;28;20026;-85
2022/02/09 04:09:53;;;;;;;0.50;0.50;;;;;;;5.32;100.00;101634.25;4972589;28;20399;-84
2022/02/09 04:15:13;;;;;;;0.40;0.40;;;;;;;5.31;100.00;101627.19;4978260;28;20384;-83
2022/02/09 04:18:14;;;;;;;0.50;0.50;;;;;;;5.13;100.00;101621.47;4988675;28;20532;-85
2022/02/09 04:36:07;;;;;;;0.50;0.50;;;;;;;4.70;100.00;101611.47;4990676;28;20029;-83
2022/02/09 04:38:01;;;;;;;0.40;0.40;;;;;;;3.66;100.00;101611.19;4992976;28;20041;-88
2022/02/09 04:40:05;;;;;;;0.40;0.40;;;;;;;3.51;100.00;101611.31;4981081;28;20057;-84
2022/02/09 04:48:01;;;;;;;0.50;0.50;;;;;;;3.07;100.00;101612.66;4977862;28;20109;-83
2022/02/09 04:50:54;;;;;;;0.50;0.50;;;;;;;3.04;100.00;101622.63;4977513;28;20484;-87
2022/02/09 04:56:12;;;;;;;0.40;0.40;;;;;;;2.59;100.00;101596.47;5003739;28;20038;-84
2022/02/09 05:01:14;;;;;;;0.50;0.50;;;;;;;2.90;100.00;101631.53;4978103;28;20038;-82
2022/02/09 05:25:47;;;;;;;0.50;0.50;;;;;;;3.13;100.00;101647.72;4971897;28;20123;-83
2022/02/09 05:28:17;;;;;;;0.50;0.50;;;;;;;3.03;100.00;101652.81;4959188;28;20066;-84
2022/02/09 05:30:44;;;;;;;0.50;0.50;;;;;;;2.93;100.00;101647.28;4974862;28;20049;-82
2022/02/09 05:33:12;;;;;;;0.40;0.40;;;;;;;2.89;100.00;101650.25;4956277;28;20128;-82
2022/02/09 05:35:42;;;;;;;0.50;0.50;;;;;;;2.95;100.00;101663.13;4976897;28;20034;-83
2022/02/09 05:38:08;;;;;;;0.50;0.50;;;;;;;3.02;100.00;101667.06;4988820;28;20032;-84
2022/02/09 05:40:33;;;;;;;0.50;0.50;;;;;;;3.11;100.00;101660.25;5007257;28;20038;-82
2022/02/09 05:43:03;;;;;;;0.55;0.55;;;;;;;3.24;100.00;101672.59;4983717;28;20030;-82
2022/02/09 05:56:35;;;;;;;0.50;0.50;;;;;;;2.44;100.00;101650.56;5009245;28;20537;-86
2022/02/09 06:01:30;;;;;;;0.50;0.50;;;;;;;2.32;100.00;101669.94;4990604;28;20030;-83
2022/02/09 06:03:59;;;;;;;0.50;0.50;;;;;;;2.17;100.00;101662.03;4971415;28;20037;-82
2022/02/09 06:06:26;;;;;;;0.50;0.50;;;;;;;2.01;100.00;101661.31;4976315;28;20048;-82
2022/02/09 06:08:51;;;;;;;0.50;0.50;;;;;;;1.91;100.00;101658.41;4970964;28;20407;-82
2022/02/09 06:11:26;;;;;;;0.50;0.50;;;;;;;1.74;100.00;101672.72;4978647;28;20116;-84
2022/02/09 06:21:56;;;;;;;0.50;0.50;;;;;;;1.42;100.00;101665.94;4994137;28;20395;-82
2022/02/09 06:24:22;;;;;;;0.52;0.52;;;;;;;1.34;100.00;101669.03;4976905;28;20033;-84
2022/02/09 06:26:48;;;;;;;0.50;0.50;;;;;;;1.32;100.00;101673.56;4980456;28;20050;-84
2022/02/09 06:29:17;;;;;;;0.50;0.50;;;;;;;1.15;100.00;101671.97;4980424;28;20037;-83
2022/02/09 06:31:44;;;;;;;0.50;0.50;;;;;;;0.98;100.00;101662.38;4978167;28;20030;-82
2022/02/09 06:34:15;;;;;;;0.50;0.50;;;;;;;1.20;100.00;101674.34;4975049;28;20038;-82
2022/02/09 06:36:45;;;;;;;0.50;0.50;;;;;;;1.36;100.00;101682.22;4959614;28;20140;-82
2022/02/09 06:39:14;;;;;;;0.50;0.50;;;;;;;1.33;100.00;101661.22;4971248;28;20429;-82
2022/02/09 06:41:41;;;;;;;0.50;0.50;;;;;;;1.40;100.00;101673.09;4982547;28;20042;-82
2022/02/09 06:44:12;;;;;;;0.50;0.50;;;;;;;1.40;100.00;101679.25;4994866;28;20036;-86
2022/02/09 06:46:40;;;;;;;0.50;0.50;;;;;;;1.39;100.00;101674.06;4992964;28;20395;-81
2022/02/09 06:49:08;;;;;;;0.50;0.50;;;;;;;1.62;100.00;101685.91;4963062;28;20457;-82
2022/02/09 06:51:37;;;;;;;0.50;0.50;;;;;;;1.78;100.00;101689.31;4965890;28;20042;-81
2022/02/09 06:54:15;;;;;;;0.50;0.50;;;;;;;1.87;100.00;101677.25;4970374;28;20395;-87
2022/02/09 06:59:30;;;;;;;0.50;0.50;;;;;;;2.10;100.00;101676.66;5005987;28;20025;-82
2022/02/09 07:02:06;;;;;;;0.50;0.50;;;;;;;2.12;100.00;101666.78;4974425;28;20038;-82
2022/02/09 07:04:33;;;;;;;0.50;0.50;;;;;;;2.18;100.00;101681.47;4973105;28;20037;-82
2022/02/09 07:06:59;;;;;;;0.50;0.50;;;;;;;2.22;100.00;101680.31;4990812;28;20026;-84
2022/02/09 07:09:25;;;;;;;0.40;0.40;;;;;;;2.33;100.00;101679.59;4989382;28;20562;-82
2022/02/09 07:11:51;;;;;;;0.40;0.40;;;;;;;2.44;100.00;101681.59;4990579;28;20049;-82
2022/02/09 07:14:22;;;;;;;0.50;0.50;;;;;;;2.52;100.00;101685.44;4986060;28;20700;-81
2022/02/09 07:16:47;;;;;;;0.50;0.50;;;;;;;2.53;100.00;101681.81;4970516;28;20045;-86
2022/02/09 07:19:13;;;;;;;0.50;0.50;;;;;;;2.50;100.00;101687.31;4977690;28;20041;-82
2022/02/09 07:21:40;;;;;;;0.50;0.50;;;;;;;2.36;100.00;101684.75;4984645;28;20051;-82
2022/02/09 07:24:11;;;;;;;0.50;0.50;;;;;;;2.36;100.00;101690.03;4986697;28;20037;-85
2022/02/09 07:29:19;;;;;;;0.50;0.50;;;;;;;2.61;100.00;101710.50;5003227;28;20379;-82
2022/02/09 07:31:45;;;;;;;0.50;0.50;;;;;;;2.53;100.00;101671.19;4984908;28;20030;-85
2022/02/09 07:34:12;;;;;;;0.50;0.50;;;;;;;2.84;100.00;101709.00;4992465;28;20037;-84
2022/02/09 07:36:39;;;;;;;0.50;0.50;;;;;;;2.92;100.00;101698.72;4976351;28;20125;-84
2022/02/09 07:39:06;;;;;;;0.50;0.50;;;;;;;3.06;100.00;101713.72;4983616;28;20046;-84
2022/02/09 07:41:34;;;;;;;0.50;0.50;;;;;;;3.04;100.00;101700.56;4977033;28;20050;-83
2022/02/09 07:52:23;;;;;;;0.50;0.50;;;;;;;2.92;100.00;101712.00;4989585;28;20029;-88
2022/02/09 07:54:28;;;;;;;0.50;0.50;;;;;;;2.80;100.00;101715.44;4983977;28;20048;-86
2022/02/09 07:56:54;;;;;;;0.40;0.40;;;;;;;2.89;100.00;101727.28;4989564;28;20112;-83
2022/02/09 07:59:20;;;;;;;0.50;0.50;;;;;;;2.93;100.00;101716.34;4957985;28;20129;-83
2022/02/09 08:01:46;;;;;;;0.40;0.40;;;;;;;3.07;100.00;101718.94;4976014;28;20049;-84
2022/02/09 08:04:12;;;;;;;0.40;0.40;;;;;;;3.19;100.00;101727.03;4987535;28;20029;-85
2022/02/09 08:06:39;;;;;;;0.40;0.40;;;;;;;3.20;100.00;101724.28;4972419;28;20389;-83
2022/02/09 08:09:10;;;;;;;0.50;0.50;;;;;;;3.24;100.00;101722.25;4989979;28;20030;-85
2022/02/09 08:27:39;;;;;;;0.50;0.50;;;;;;;3.48;100.00;101733.84;4992365;28;20057;-83
2022/02/09 08:32:51;;;;;;;0.50;0.50;;;;;;;3.44;100.00;101740.34;4981650;28;20040;-83
2022/02/09 08:35:17;;;;;;;0.50;0.50;;;;;;;3.49;100.00;101746.22;4994535;28;20042;-83
2022/02/09 08:37:44;;;;;;;0.50;0.50;;;;;;;3.59;100.00;101753.53;4991419;28;20060;-85
2022/02/09 08:40:13;;;;;;;0.50;0.50;;;;;;;3.65;100.00;101740.69;4993376;28;20481;-82
2022/02/09 08:42:39;;;;;;;0.50;0.50;;;;;;;3.80;100.00;101746.72;4982212;28;20030;-84
2022/02/09 08:45:07;;;;;;;0.50;0.50;;;;;;;3.86;100.00;101751.59;4975009;28;20045;-85
2022/02/09 08:47:36;;;;;;;0.50;0.50;;;;;;;3.90;100.00;101760.22;4980106;28;20763;-83
2022/02/09 08:50:04;;;;;;;0.50;0.50;;;;;;;4.00;100.00;101760.44;4972632;28;20072;-83
2022/02/09 08:52:38;;;;;;;0.40;0.40;;;;;;;4.24;100.00;101753.38;4961011;28;20073;-83
2022/02/09 08:55:05;;;;;;;0.50;0.50;;;;;;;4.53;100.00;101751.25;4990454;28;20033;-83
2022/02/09 08:57:30;;;;;;;0.50;0.50;;;;;;;4.71;100.00;101741.06;4983450;28;20056;-82
2022/02/09 08:59:58;;;;;;;0.50;0.50;;;;;;;4.91;100.00;101752.03;4970347;28;20375;-86
2022/02/09 09:02:31;;;;;;;0.50;0.50;;;;;;;4.85;100.00;101754.19;4952279;28;20345;-86
2022/02/09 09:05:07;;;;;;;;;;;;;;;4.78;100.00;101760.94;4986361;28;20053;-83
2022/02/09 09:07:36;;;;;;;0.50;0.50;;;;;;;4.63;100.00;101751.41;4988433;28;19964;-83
2022/02/09 09:10:23;;;;;;;0.50;0.50;;;;;;;4.72;100.00;101772.06;4986149;28;20065;-85
2022/02/09 09:40:39;;;;;;;0.50;0.50;;;;;;;5.21;100.00;101796.84;4978847;28;20480;-84
2022/02/09 10:02:57;;;;;;;0.70;0.70;;;;;;;8.91;100.00;101844.75;4933529;29;20093;-86
2022/02/09 10:34:35;;;;;;;0.50;0.50;;;;;;;8.75;100.00;101821.16;4983037;28;20403;-86
2022/02/09 10:37:02;;;;;;;0.50;0.50;;;;;;;7.96;100.00;101804.06;4966902;28;20037;-85
2022/02/09 10:39:43;;;;;;;0.50;0.50;;;;;;;7.77;100.00;101820.88;5000687;28;20042;-85
2022/02/09 10:42:19;;;;;;;0.50;0.50;;;;;;;7.44;100.00;101814.75;4982968;28;20026;-86
2022/02/09 10:44:55;;;;;;;0.50;0.50;;;;;;;7.23;100.00;101823.59;4986705;28;20043;-86
2022/02/09 10:47:34;;;;;;;0.50;0.50;;;;;;;7.12;100.00;101831.66;4992467;28;20025;-85
2022/02/09 10:52:59;;;;;;;0.50;0.50;;;;;;;6.80;100.00;101834.28;4995256;28;20046;-85
2022/02/09 10:55:31;;;;;;;0.55;0.55;;;;;;;6.97;100.00;101833.75;4977247;28;20066;-87
2022/02/09 10:57:57;;;;;;;0.60;0.60;;;;;;;7.89;100.00;101836.72;4982543;28;20096;-87
2022/02/09 11:00:25;;;;;;;0.50;0.50;;;;;;;8.38;100.00;101837.81;4969380;28;20121;-87
2022/02/09 11:02:51;;;;;;;0.60;0.60;;;;;;;8.35;100.00;101838.06;4975400;28;20066;-87
2022/02/09 11:05:20;;;;;;;0.50;0.50;;;;;;;8.43;100.00;101850.00;4998817;28;20462;-87
2022/02/09 11:07:47;;;;;;;0.50;0.50;;;;;;;8.29;100.00;101835.94;4989195;28;20037;-88
2022/02/09 11:10:13;;;;;;;0.50;0.50;;;;;;;8.34;100.00;101841.75;4967123;28;20124;-87
2022/02/09 11:12:41;;;;;;;0.50;0.50;;;;;;;8.17;100.00;101845.03;4978756;28;20124;-88
2022/02/09 11:15:08;;;;;;;0.50;0.50;;;;;;;7.94;100.00;101814.91;4998111;28;20036;-88
2022/02/09 11:17:34;;;;;;;0.70;0.70;;;;;;;9.53;100.00;101848.06;4977917;28;20370;-88
2022/02/09 11:19:59;;;;;;;0.50;0.50;;;;;;;11.25;93.24;101847.69;4988693;28;20052;-88
2022/02/09 11:22:39;;;;;;;0.60;0.60;;;;;;;10.10;96.38;101837.34;4977042;28;20049;-88
2022/02/09 11:25:08;;;;;;;0.60;0.60;;;;;;;9.48;99.29;101853.03;4985431;28;20045;-86
2022/02/09 11:27:36;;;;;;;0.40;0.40;;;;;;;8.95;100.00;101856.94;4999261;28;20029;-87
2022/02/09 11:30:10;;;;;;;0.50;0.50;;;;;;;8.45;100.00;101858.75;4972348;28;20038;-88
2022/02/09 11:32:45;;;;;;;0.63;0.63;;;;;;;8.24;100.00;101870.34;4978193;28;20034;-88
2022/02/09 11:41:13;;;;;;;0.50;0.50;;;;;;;7.61;100.00;101845.41;4994274;28;20045;-89
2022/02/09 11:43:34;;;;;;;0.88;0.88;;;;;;;7.18;100.00;101846.34;4986657;28;20511;-87
2022/02/09 12:10:50;;;;;;;4.00;1.00;;;;;;;10.05;97.89;101845.84;4994281;28;20040;-87
2022/02/09 12:14:15;;;;;;;7.57;1.33;;;;;;;9.19;100.00;101839.59;4959132;28;20044;-86
2022/02/09 12:17:13;;;;;;;5.90;1.58;;;;;;;8.47;100.00;101846.06;4991562;28;20049;-89
2022/02/09 12:19:50;;;;;;;3.70;1.58;;;;;;;8.31;100.00;101823.28;5007138;28;20052;-86
2022/02/09 12:22:18;;;;;;;5.03;3.05;;;;;;;8.79;100.00;101841.38;4993576;28;20026;-88
2022/02/09 12:24:44;;;;;;;7.95;1.88;;;;;;;8.74;100.00;101824.84;4982358;28;20479;-88
2022/02/09 12:27:12;;;;;;;6.95;2.08;;;;;;;8.61;100.00;101834.13;4979127;28;20037;-88
2022/02/09 12:29:39;;;;;;;6.55;2.10;;;;;;;8.32;100.00;101841.03;4980605;28;20109;-88
2022/02/09 12:32:27;;;;;;;11.57;2.45;;;;;;;7.80;100.00;101821.44;4974999;28;20515;-87
2022/02/09 12:34:54;;;;;;;3.92;1.08;;;;;;;7.53;100.00;101839.88;4988192;28;20041;-88
2022/02/09 12:37:19;;;;;;;6.88;1.60;;;;;;;7.26;100.00;101823.31;4988890;28;20666;-88
2022/02/09 12:39:56;;;;;;;4.20;1.45;;;;;;;7.34;100.00;101832.53;4965450;28;20060;-87
2022/02/09 12:42:25;;;;;;;9.38;1.50;;;;;;;7.57;100.00;101830.59;4986859;28;20091;-87
2022/02/09 12:45:17;;;;;;;1.65;1.40;;;;;;;10.51;97.18;101819.97;4975047;28;20124;-87
2022/02/09 12:47:46;;;;;;;4.35;1.98;;;;;;;13.44;84.38;101815.75;4977424;28;20076;-86
2022/02/09 12:50:40;;;;;;;7.20;1.98;;;;;;;15.33;77.24;101805.06;5004175;28;20033;-87
2022/02/09 12:53:07;;;;;;;10.75;1.90;;;;;;;17.54;68.53;101808.63;4955169;28;20073;-87
2022/02/09 12:55:36;;;;;;;12.57;1.95;;;;;;;15.14;76.27;101795.56;4991303;28;20050;-86
2022/02/09 12:58:08;;;;;;;2.95;1.13;;;;;;;13.61;81.21;101814.72;4966723;28;20041;-88
2022/02/09 13:00:43;;;;;;;4.90;1.95;;;;;;;12.64;84.43;101823.50;4979889;28;20457;-88
2022/02/09 13:03:11;;;;;;;8.75;1.77;;;;;;;11.57;88.66;101816.66;4993385;28;20075;-85
2022/02/09 13:05:46;;;;;;;3.90;1.40;;;;;;;11.96;86.36;101822.50;4993107;28;20045;-87
2022/02/09 13:08:18;;;;;;;7.20;1.30;;;;;;;10.86;89.57;101822.88;4952824;28;20040;-88
2022/02/09 13:10:44;;;;;;;5.65;2.10;;;;;;;10.40;91.84;101820.16;5009262;28;20556;-88
2022/02/09 13:13:25;;;;;;;9.63;2.22;;;;;;;11.82;86.09;101813.09;5000245;28;20029;-87
2022/02/09 13:15:58;;;;;;;5.15;1.95;;;;;;;13.20;79.51;101790.41;4987300;28;20518;-87
2022/02/09 14:04:22;;;;;;;3.38;1.70;;;;;;;12.30;82.98;101771.31;4972353;28;20025;-86
2022/02/09 14:59:20;;;;;;;7.57;1.85;;;;;;;7.70;80.98;101772.38;4982081;28;20530;-86
2022/02/09 15:01:57;;;;;;;9.93;1.65;;;;;;;7.42;81.29;101774.72;4977809;28;20041;-86
2022/02/09 15:07:37;;;;;;;8.68;2.22;;;;;;;7.37;82.76;101787.63;4938469;28;20424;-87
2022/02/09 15:10:16;;;;;;;8.85;1.95;;;;;;;8.62;80.02;101761.59;4999366;28;20123;-87
2022/02/09 15:15:59;;;;;;;3.30;1.27;;;;;;;8.05;79.46;101779.16;4972071;28;20050;-87
2022/02/09 15:23:50;;;;;;;6.63;1.95;;;;;;;7.28;84.44;101748.28;4979362;28;20133;-86
2022/02/09 15:26:18;;;;;;;3.95;0.95;;;;;;;6.93;86.50;101772.63;4989780;28;20043;-87
2022/02/09 15:28:44;;;;;;;4.25;1.02;;;;;;;6.69;88.43;101764.81;4961049;28;20439;-87
2022/02/09 15:31:18;;;;;;;3.80;1.17;;;;;;;6.52;89.97;101760.84;4983403;28;20041;-87
2022/02/09 15:33:51;;;;;;;6.10;1.48;;;;;;;6.62;88.57;101763.63;4974264;28;20069;-87
2022/02/09 15:36:25;;;;;;;4.72;1.50;;;;;;;6.85;86.89;101759.91;5005315;28;20029;-85
2022/02/09 15:38:51;;;;;;;8.10;1.50;;;;;;;6.80;87.19;101756.75;4998043;28;20045;-86
2022/02/09 15:41:34;;;;;;;7.07;1.58;;;;;;;6.82;87.17;101761.00;4959260;28;20369;-85
2022/02/09 16:10:49;;;;;;;6.97;1.92;;;;;;;5.71;91.22;101760.13;4978221;28;20038;-86
2022/02/09 16:24:11;;;;;;;14.60;7.07;;;;;;;5.70;90.09;101756.63;5013242;28;20494;-86
2022/02/09 16:36:00;;;;;;;6.13;2.83;;;;;;;5.19;90.46;101743.66;4974850;28;20037;-85
2022/02/09 16:37:55;;;;;;;5.97;2.60;;;;;;;5.02;91.43;101733.41;4993388;28;20060;-85
2022/02/09 16:46:12;;;;;;;3.95;1.50;;;;;;;4.89;93.80;101754.81;5003927;28;20064;-85
2022/02/09 16:48:43;;;;;;;4.75;1.25;;;;;;;4.85;94.40;101764.84;4992465;28;20033;-88
2022/02/09 16:51:16;;;;;;;4.30;1.13;;;;;;;4.58;100.00;101769.56;4984950;28;20373;-88
2022/02/09 16:53:50;;;;;;;4.75;1.38;;;;;;;4.17;100.00;101760.06;4991605;28;20041;-88
2022/02/09 17:19:34;;;;;;;0.50;0.50;;;;;;;2.64;100.00;101748.31;5002255;28;20065;-88
2022/02/09 17:22:00;;;;;;;0.40;0.40;;;;;;;2.58;100.00;101756.69;4978650;28;20108;-87
2022/02/09 17:24:27;;;;;;;0.40;0.40;;;;;;;2.45;100.00;101758.44;4975194;28;20461;-87
2022/02/09 17:26:54;;;;;;;0.40;0.40;;;;;;;2.28;100.00;101748.91;5003523;28;20037;-87
2022/02/09 17:29:25;;;;;;;0.40;0.40;;;;;;;2.01;100.00;101709.06;4986423;28;20049;-87
2022/02/09 17:32:08;;;;;;;0.43;0.43;;;;;;;2.17;100.00;101757.56;4985305;28;20119;-87
2022/02/09 17:53:27;;;;;;;0.60;0.60;;;;;;;2.66;100.00;101755.38;4990529;28;20086;-89
2022/02/09 17:56:01;;;;;;;0.50;0.50;;;;;;;2.82;100.00;101756.06;4958718;28;20486;-86
2022/02/09 17:58:33;;;;;;;0.40;0.40;;;;;;;2.84;100.00;101768.28;4996951;28;20034;-87
2022/02/09 18:01:00;;;;;;;0.50;0.50;;;;;;;2.81;100.00;101757.88;4983279;28;20030;-87
2022/02/09 18:03:28;;;;;;;0.50;0.50;;;;;;;2.92;100.00;101774.91;5005707;28;20087;-87
2022/02/09 18:05:56;;;;;;;1.02;1.02;;;;;;;2.97;100.00;101780.75;4993578;28;20048;-87
2022/02/09 18:32:50;;;;;;;0.40;0.40;;;;;;;2.39;100.00;101762.34;4977473;28;20037;-87
2022/02/09 18:43:12;;;;;;;0.45;0.45;;;;;;;1.88;100.00;101767.34;4978412;28;20044;-86
2022/02/09 18:45:50;;;;;;;0.40;0.40;;;;;;;1.79;100.00;101767.91;4991076;28;20025;-86
2022/02/09 19:05:14;;;;;;;0.50;0.50;;;;;;;2.10;100.00;101806.66;4999391;28;20103;-87
2022/02/09 19:46:50;;;;;;;0.40;0.40;;;;;;;1.17;100.00;101772.53;4981593;28;20125;-87
2022/02/09 19:57:16;;;;;;;0.50;0.50;;;;;;;1.35;100.00;101778.53;5001866;28;20098;-86
2022/02/09 19:59:42;;;;;;;0.50;0.50;;;;;;;1.31;100.00;101764.63;4979362;28;20045;-87
2022/02/09 20:02:13;;;;;;;0.50;0.50;;;;;;;1.34;100.00;101780.34;4978336;28;20038;-86
2022/02/09 20:04:39;;;;;;;0.40;0.40;;;;;;;1.18;100.00;101753.03;4980371;28;20068;-86
2022/02/09 20:07:07;;;;;;;0.50;0.50;;;;;;;1.24;100.00;101784.47;4985498;28;20127;-87
2022/02/09 20:09:33;;;;;;;0.50;0.50;;;;;;;1.22;100.00;101781.06;4972974;28;20026;-86
2022/02/09 20:11:59;;;;;;;0.40;0.40;;;;;;;1.15;100.00;101766.47;4979003;28;20037;-86
2022/02/09 20:14:29;;;;;;;0.40;0.40;;;;;;;1.12;100.00;101762.22;4987042;28;20050;-87
2022/02/09 20:16:54;;;;;;;0.50;0.50;;;;;;;1.16;100.00;101770.81;4965250;28;20128;-87
2022/02/09 20:19:20;;;;;;;0.50;0.50;;;;;;;1.00;100.00;101761.13;4978444;28;20192;-87
2022/02/09 20:22:22;;;;;;;0.45;0.45;;;;;;;0.89;100.00;101752.94;4970051;28;20041;-86
2022/02/09 20:28:47;;;;;;;0.50;0.50;;;;;;;0.94;100.00;101755.34;4985509;28;20416;-86
2022/02/09 20:35:13;;;;;;;0.43;0.43;;;;;;;0.81;100.00;101720.78;5008789;28;20080;-87
2022/02/09 20:37:47;;;;;;;0.40;0.40;;;;;;;0.68;100.00;101723.28;5001663;28;20060;-86
2022/02/09 20:40:52;;;;;;;0.40;0.40;;;;;;;0.47;100.00;101720.06;4972260;28;20038;-87
2022/02/09 20:44:00;;;;;;;0.50;0.50;;;;;;;0.31;100.00;101735.94;4993048;28;20524;-86
2022/02/09 20:50:24;;;;;;;0.50;0.50;;;;;;;0.16;100.00;101750.00;4978134;28;20050;-86
2022/02/09 20:53:16;;;;;;;0.40;0.40;;;;;;;0.12;100.00;101746.69;4989041;28;20029;-87
2022/02/09 20:56:34;;;;;;;15.68;6.50;;;;;;;-0.07;100.00;101719.56;4976663;28;20488;-86
2022/02/09 20:59:27;;;;;;;0.50;0.50;;;;;;;-0.10;100.00;101707.34;5006508;28;20176;-86
2022/02/09 21:05:08;;;;;;;0.50;0.50;;;;;;;0.17;100.00;101720.84;4996401;28;20053;-87
2022/02/09 21:07:44;;;;;;;;;;;;;;;0.70;100.00;101782.28;4995025;28;20034;-86
2022/02/09 22:01:13;;;;;;;0.40;0.40;;;;;;;-0.57;100.00;101755.66;4975057;28;20084;-85
2022/02/09 22:20:18;;;;;;;0.50;0.50;;;;;;;-0.37;100.00;101788.97;5002115;28;20038;-87
2022/02/09 22:27:43;;;;;;;0.50;0.50;;;;;;;-0.72;100.00;101775.78;4981665;28;20036;-87
2022/02/09 22:49:38;;;;;;;0.50;0.50;;;;;;;0.23;100.00;101791.06;4995075;28;20050;-87
2022/02/09 22:54:49;;;;;;;0.50;0.50;;;;;;;0.15;100.00;101790.63;4986724;28;20890;-84
2022/02/09 22:57:16;;;;;;;0.50;0.50;;;;;;;0.10;100.00;101792.66;4986171;28;20491;-88
2022/02/09 22:59:47;;;;;;;0.50;0.50;;;;;;;-0.20;100.00;101772.22;4979222;28;20488;-88
2022/02/09 23:02:27;;;;;;;0.50;0.50;;;;;;;-0.39;100.00;101768.84;4961561;28;20026;-88
2022/02/09 23:07:50;;;;;;;1.48;1.48;;;;;;;-0.60;100.00;101792.81;4994424;28;20037;-88
2022/02/09 23:13:01;;;;;;;0.50;0.50;;;;;;;-0.74;100.00;101788.22;4995028;28;20041;-87
2022/02/09 23:15:41;;;;;;;0.55;0.55;;;;;;;-0.80;100.00;101790.31;4994118;28;20026;-86
2022/02/09 23:18:40;;;;;;;0.50;0.50;;;;;;;-0.89;100.00;101775.78;4977730;28;20172;-87
